Bergerac-Roumanière


Bulletin



L'aéroport de Bergerac-Roumanière (France) a édité ce bulletin météorologique il y a 69 minutes, à 17:00 Europe/Paris (15H00 UTC)
La température est de 18 °C, avec un point de rosée à 11 °C.
L'humidite relative est de 63.64 %.
La pression au niveau de la mer est de 1017 hPa.
Le vent souffle à une vitesse de 28 km/h du OSO (260°).


Message METAR

LFBE 231500Z AUTO 26015KT 9999 ///CB 18/11 Q1017
Récupérer le message au format XML
Récupérer le message au format JSON


Observations sur 24h




Date (Locale) Temp. (°C) Point rosée (°C) Pression (hPa) Direction vent Vitesse (km/h)
17:00 23/04/2014 18 11 1017 OSO 28
16:00 23/04/2014 19 14 1017 O 9
15:00 23/04/2014 22 9 1017 S 11
14:00 23/04/2014 21 9 1017 S 11
12:00 23/04/2014 19 13 1018 SE 9
11:00 23/04/2014 17 14 1018 NE 7
09:00 23/04/2014 9 9 1018 NE 9
08:00 23/04/2014 6 6 1018 NE 6
07:30 23/04/2014 5 5 1018 ENE 6
06:00 23/04/2014 5 5 1017 NE 4
05:30 23/04/2014 6 5 1018 E 2
04:00 23/04/2014 6 6 1018 N 0
03:00 23/04/2014 7 6 1018 N 0
02:00 23/04/2014 8 8 1018 N 0
01:00 23/04/2014 9 9 1018 ENE 6
00:00 23/04/2014 10 9 1018 N 0
23:30 22/04/2014 10 9 1017 N 0
22:00 22/04/2014 13 11 1016 N 0
21:00 22/04/2014 15 11 1015 SE 6
20:00 22/04/2014 16 11 1015 SE 4
19:30 22/04/2014 17 11 1015 N 4
Les données de cette page proviennent des messages METAR de la NOAA